Terminal Aerodrome Forecast
Issued by NWS

Home | Current Version | Previous Version | Graphics & Text | Print | Product List | Glossary On
Versions: 1 2 3 4 5 6 7 8 9 10 11 12 13 14 15 16 17 18 19 20 21 22 23 24 25 26 27 28 29 30 31 32 33 34 35 36 37 38 39 40 41 42
000
FTUS43 KGRB 200520
TAFATW
TAF
KATW 200520Z 2006/2106 03008KT 1SM -FZDZ BR OVC003
      TEMPO 2006/2010 3SM -FZRA BR
     FM201000 11003KT 1/2SM -FZDZ FZFG OVC002 WS020/23030KT
     FM201600 24005KT 5SM -DZ BR OVC005
     FM202200 27009KT P6SM OVC007
     FM210000 29009G15KT P6SM OVC014
     FM210400 29012G18KT P6SM BKN020=

USA.gov is the U.S. government's official web portal to all federal, state and local government web resources and services.